Back to Top

Language: 

My Weather Underground Personal Weather Station Historical Data with Graphs...

Delerius Weather Station Historical Data
Daily Summary for March 29, 2017 Units:  Both    English   Metric
« Previous Day
Next Day »
Daily Weekly Monthly Yearly Custom
  High: Low: Average:
Temperature: 57.9 °F /  14.4 °C 49.3 °F /  9.6 °C 53.9 °F /  12.2 °C
Dew Point: 53.9 °F /  12.2 °C 46.4 °F /  8 °C 50.8 °F /  10.4 °C
Humidity: 97 % 81 % 89 %
Wind Speed: 14.0 mph /  22.5 km/h - 6.9 mph /  11.1 km/h
Wind Gust: 27.0 mph /  43.5 km/h - -
Wind:- - SSW
Pressure: 30.07 in /  1018.2 hPa 29.99 in /  1015.5 hPa -
Precipitation: 0.02 in /  0.51 mm    
Historical Graphs
 
 
Tabular Data for March 29, 2017
Time Temperature Dew Point Pressure Wind Wind Speed Wind Gust Humidity Rainfall Rate (Hourly) solar Conditions
00:03 51.3 °F /  10.7 °C 47.2 °F /  8.4 °C 30.03 in /  1016.8 hPa SSW 3.0 mph /  4.8 km/h 7.0 mph /  11.3 km/h 86 % 0.00 in /  0 mm 0 W/m2
00:08 51.1 °F /  10.6 °C 47.0 °F /  8.3 °C 30.02 in /  1016.5 hPa SSW 2.0 mph /  3.2 km/h 7.0 mph /  11.3 km/h 86 % 0.00 in /  0 mm 0 W/m2
00:13 51.1 °F /  10.6 °C 47.0 °F /  8.3 °C 30.02 in /  1016.5 hPa SSE 1.0 mph /  1.6 km/h 6.0 mph /  9.7 km/h 86 % 0.00 in /  0 mm 0 W/m2
00:18 51.1 °F /  10.6 °C 47.3 °F /  8.5 °C 30.02 in /  1016.5 hPa SSE 2.0 mph /  3.2 km/h 7.0 mph /  11.3 km/h 87 % 0.00 in /  0 mm 0 W/m2
00:23 50.9 °F /  10.5 °C 47.2 °F /  8.4 °C 30.02 in /  1016.5 hPa SSE 2.0 mph /  3.2 km/h 7.0 mph /  11.3 km/h 87 % 0.00 in /  0 mm 0 W/m2
00:28 50.9 °F /  10.5 °C 47.5 °F /  8.6 °C 30.02 in /  1016.5 hPa South 3.0 mph /  4.8 km/h 7.0 mph /  11.3 km/h 88 % 0.00 in /  0 mm 0 W/m2
00:33 50.9 °F /  10.5 °C 47.5 °F /  8.6 °C 30.02 in /  1016.5 hPa SSW 4.0 mph /  6.4 km/h 7.0 mph /  11.3 km/h 88 % 0.00 in /  0 mm 0 W/m2
00:38 50.9 °F /  10.5 °C 47.5 °F /  8.6 °C 30.02 in /  1016.5 hPa SSW 5.0 mph /  8 km/h 8.0 mph /  12.9 km/h 88 % 0.00 in /  0 mm 0 W/m2
00:43 50.9 °F /  10.5 °C 47.2 °F /  8.4 °C 30.02 in /  1016.5 hPa SSW 4.0 mph /  6.4 km/h 8.0 mph /  12.9 km/h 87 % 0.00 in /  0 mm 0 W/m2
00:48 50.9 °F /  10.5 °C 47.2 °F /  8.4 °C 30.02 in /  1016.5 hPa South 3.0 mph /  4.8 km/h 8.0 mph /  12.9 km/h 87 % 0.00 in /  0 mm 0 W/m2
00:53 50.9 °F /  10.5 °C 47.2 °F /  8.4 °C 30.02 in /  1016.5 hPa SSW 2.0 mph /  3.2 km/h 7.0 mph /  11.3 km/h 87 % 0.00 in /  0 mm 0 W/m2
00:58 50.9 °F /  10.5 °C 46.9 °F /  8.3 °C 30.02 in /  1016.5 hPa South 3.0 mph /  4.8 km/h 9.0 mph /  14.5 km/h 86 % 0.00 in /  0 mm 0 W/m2
01:03 50.9 °F /  10.5 °C 46.9 °F /  8.3 °C 30.02 in /  1016.5 hPa SSW 4.0 mph /  6.4 km/h 9.0 mph /  14.5 km/h 86 % 0.00 in /  0 mm 0 W/m2
01:08 50.9 °F /  10.5 °C 46.9 °F /  8.3 °C 30.02 in /  1016.5 hPa SSW 2.0 mph /  3.2 km/h 8.0 mph /  12.9 km/h 86 % 0.00 in /  0 mm 0 W/m2
01:13 50.9 °F /  10.5 °C 46.6 °F /  8.1 °C 30.02 in /  1016.5 hPa SW 4.0 mph /  6.4 km/h 11.0 mph /  17.7 km/h 85 % 0.00 in /  0 mm 0 W/m2
01:18 50.9 °F /  10.5 °C 46.6 °F /  8.1 °C 30.02 in /  1016.5 hPa SW 6.0 mph /  9.7 km/h 11.0 mph /  17.7 km/h 85 % 0.00 in /  0 mm 0 W/m2
01:23 50.7 °F /  10.4 °C 46.4 °F /  8 °C 30.02 in /  1016.5 hPa SW 6.0 mph /  9.7 km/h 12.0 mph /  19.3 km/h 85 % 0.00 in /  0 mm 0 W/m2
01:28 50.9 °F /  10.5 °C 46.6 °F /  8.1 °C 30.02 in /  1016.5 hPa SW 6.0 mph /  9.7 km/h 12.0 mph /  19.3 km/h 85 % 0.00 in /  0 mm 0 W/m2
01:33 50.9 °F /  10.5 °C 46.6 °F /  8.1 °C 30.01 in /  1016.1 hPa SW 6.0 mph /  9.7 km/h 10.0 mph /  16.1 km/h 85 % 0.00 in /  0 mm 0 W/m2
01:39 50.9 °F /  10.5 °C 46.6 °F /  8.1 °C 30.01 in /  1016.1 hPa SW 6.0 mph /  9.7 km/h 11.0 mph /  17.7 km/h 85 % 0.00 in /  0 mm 0 W/m2
01:44 50.7 °F /  10.4 °C 46.7 °F /  8.2 °C 30.02 in /  1016.5 hPa SW 5.0 mph /  8 km/h 11.0 mph /  17.7 km/h 86 % 0.00 in /  0 mm 0 W/m2
01:49 50.7 °F /  10.4 °C 46.7 °F /  8.2 °C 30.02 in /  1016.5 hPa SW 5.0 mph /  8 km/h 9.0 mph /  14.5 km/h 86 % 0.00 in /  0 mm 0 W/m2
01:54 50.7 °F /  10.4 °C 47.0 °F /  8.3 °C 30.02 in /  1016.5 hPa SW 6.0 mph /  9.7 km/h 9.0 mph /  14.5 km/h 87 % 0.00 in /  0 mm 0 W/m2
01:59 50.5 °F /  10.3 °C 46.8 °F /  8.2 °C 30.01 in /  1016.1 hPa SW 6.0 mph /  9.7 km/h 9.0 mph /  14.5 km/h 87 % 0.00 in /  0 mm 0 W/m2
02:04 50.5 °F /  10.3 °C 46.8 °F /  8.2 °C 30.01 in /  1016.1 hPa SW 6.0 mph /  9.7 km/h 10.0 mph /  16.1 km/h 87 % 0.00 in /  0 mm 0 W/m2
02:09 50.5 °F /  10.3 °C 47.1 °F /  8.4 °C 30.01 in /  1016.1 hPa SW 6.0 mph /  9.7 km/h 10.0 mph /  16.1 km/h 88 % 0.00 in /  0 mm 0 W/m2
02:14 50.4 °F /  10.2 °C 46.9 °F /  8.3 °C 30.01 in /  1016.1 hPa SW 6.0 mph /  9.7 km/h 10.0 mph /  16.1 km/h 88 % 0.00 in /  0 mm 0 W/m2
02:19 50.4 °F /  10.2 °C 46.9 °F /  8.3 °C 30.01 in /  1016.1 hPa SW 7.0 mph /  11.3 km/h 11.0 mph /  17.7 km/h 88 % 0.00 in /  0 mm 0 W/m2
02:24 50.4 °F /  10.2 °C 46.9 °F /  8.3 °C 30.01 in /  1016.1 hPa SSW 7.0 mph /  11.3 km/h 12.0 mph /  19.3 km/h 88 % 0.00 in /  0 mm 0 W/m2
02:29 50.4 °F /  10.2 °C 47.2 °F /  8.4 °C 30.01 in /  1016.1 hPa SSW 6.0 mph /  9.7 km/h 12.0 mph /  19.3 km/h 89 % 0.00 in /  0 mm 0 W/m2
02:34 50.2 °F /  10.1 °C 47.1 °F /  8.4 °C 30.01 in /  1016.1 hPa SW 4.0 mph /  6.4 km/h 8.0 mph /  12.9 km/h 89 % 0.00 in /  0 mm 0 W/m2
02:39 50.2 °F /  10.1 °C 47.4 °F /  8.6 °C 30.01 in /  1016.1 hPa SW 1.0 mph /  1.6 km/h 5.0 mph /  8 km/h 90 % 0.00 in /  0 mm 0 W/m2
02:44 50.2 °F /  10.1 °C 47.4 °F /  8.6 °C 30.01 in /  1016.1 hPa SSW 1.0 mph /  1.6 km/h 5.0 mph /  8 km/h 90 % 0.00 in /  0 mm 0 W/m2
02:49 50.2 °F /  10.1 °C 47.4 °F /  8.6 °C 30.01 in /  1016.1 hPa South 1.0 mph /  1.6 km/h 5.0 mph /  8 km/h 90 % 0.00 in /  0 mm 0 W/m2
02:54 50.0 °F /  10 °C 47.2 °F /  8.4 °C 30.01 in /  1016.1 hPa SSE 1.0 mph /  1.6 km/h 5.0 mph /  8 km/h 90 % 0.00 in /  0 mm 0 W/m2
02:59 50.0 °F /  10 °C 47.2 °F /  8.4 °C 30.01 in /  1016.1 hPa SSE 2.0 mph /  3.2 km/h 5.0 mph /  8 km/h 90 % 0.00 in /  0 mm 0 W/m2
03:04 50.0 °F /  10 °C 47.5 °F /  8.6 °C 30.01 in /  1016.1 hPa SSE 2.0 mph /  3.2 km/h 5.0 mph /  8 km/h 91 % 0.00 in /  0 mm 0 W/m2
03:09 49.8 °F /  9.9 °C 47.3 °F /  8.5 °C 30.01 in /  1016.1 hPa SSE 2.0 mph /  3.2 km/h 6.0 mph /  9.7 km/h 91 % 0.00 in /  0 mm 0 W/m2
03:14 49.8 °F /  9.9 °C 47.6 °F /  8.7 °C 30.00 in /  1015.8 hPa SSE 2.0 mph /  3.2 km/h 6.0 mph /  9.7 km/h 92 % 0.00 in /  0 mm 0 W/m2
03:19 49.6 °F /  9.8 °C 47.4 °F /  8.6 °C 30.00 in /  1015.8 hPa SSE 2.0 mph /  3.2 km/h 6.0 mph /  9.7 km/h 92 % 0.00 in /  0 mm 0 W/m2
03:24 49.6 °F /  9.8 °C 47.4 °F /  8.6 °C 30.00 in /  1015.8 hPa SSE 2.0 mph /  3.2 km/h 6.0 mph /  9.7 km/h 92 % 0.00 in /  0 mm 0 W/m2
03:30 49.6 °F /  9.8 °C 47.7 °F /  8.7 °C 30.00 in /  1015.8 hPa SSE 3.0 mph /  4.8 km/h 6.0 mph /  9.7 km/h 93 % 0.00 in /  0 mm 0 W/m2
03:35 49.5 °F /  9.7 °C 47.5 °F /  8.6 °C 30.00 in /  1015.8 hPa SSE 2.0 mph /  3.2 km/h 5.0 mph /  8 km/h 93 % 0.00 in /  0 mm 0 W/m2
03:40 49.5 °F /  9.7 °C 47.5 °F /  8.6 °C 30.00 in /  1015.8 hPa South 2.0 mph /  3.2 km/h 6.0 mph /  9.7 km/h 93 % 0.00 in /  0 mm 0 W/m2
03:45 49.5 °F /  9.7 °C 47.5 °F /  8.6 °C 30.00 in /  1015.8 hPa South 2.0 mph /  3.2 km/h 6.0 mph /  9.7 km/h 93 % 0.00 in /  0 mm 0 W/m2
03:50 49.5 °F /  9.7 °C 47.5 °F /  8.6 °C 30.00 in /  1015.8 hPa South 1.0 mph /  1.6 km/h 6.0 mph /  9.7 km/h 93 % 0.00 in /  0 mm 0 W/m2
03:55 49.3 °F /  9.6 °C 47.6 °F /  8.7 °C 30.00 in /  1015.8 hPa SSE 1.0 mph /  1.6 km/h 5.0 mph /  8 km/h 94 % 0.00 in /  0 mm 0 W/m2
04:00 49.3 °F /  9.6 °C 47.6 °F /  8.7 °C 30.00 in /  1015.8 hPa SSE 1.0 mph /  1.6 km/h 4.0 mph /  6.4 km/h 94 % 0.00 in /  0 mm 0 W/m2
04:05 49.3 °F /  9.6 °C 47.6 °F /  8.7 °C 30.00 in /  1015.8 hPa SE 2.0 mph /  3.2 km/h 6.0 mph /  9.7 km/h 94 % 0.00 in /  0 mm 0 W/m2
04:10 49.3 °F /  9.6 °C 47.6 °F /  8.7 °C 30.00 in /  1015.8 hPa SE 3.0 mph /  4.8 km/h 6.0 mph /  9.7 km/h 94 % 0.01 in /  0.25 mm 0 W/m2
04:15 49.5 °F /  9.7 °C 47.8 °F /  8.8 °C 30.00 in /  1015.8 hPa SE 3.0 mph /  4.8 km/h 6.0 mph /  9.7 km/h 94 % 0.01 in /  0.25 mm 0 W/m2
04:20 49.5 °F /  9.7 °C 48.1 °F /  8.9 °C 29.99 in /  1015.5 hPa SE 2.0 mph /  3.2 km/h 6.0 mph /  9.7 km/h 95 % 0.01 in /  0.25 mm 0 W/m2
04:25 49.5 °F /  9.7 °C 48.1 °F /  8.9 °C 29.99 in /  1015.5 hPa SE 2.0 mph /  3.2 km/h 6.0 mph /  9.7 km/h 95 % 0.01 in /  0.25 mm 0 W/m2
04:30 49.5 °F /  9.7 °C 48.1 °F /  8.9 °C 29.99 in /  1015.5 hPa SE 3.0 mph /  4.8 km/h 8.0 mph /  12.9 km/h 95 % 0.01 in /  0.25 mm 0 W/m2
04:35 49.5 °F /  9.7 °C 48.1 °F /  8.9 °C 29.99 in /  1015.5 hPa SE 3.0 mph /  4.8 km/h 8.0 mph /  12.9 km/h 95 % 0.01 in /  0.25 mm 0 W/m2
04:40 49.5 °F /  9.7 °C 48.1 °F /  8.9 °C 29.99 in /  1015.5 hPa SE 4.0 mph /  6.4 km/h 7.0 mph /  11.3 km/h 95 % 0.01 in /  0.25 mm 0 W/m2
04:45 49.5 °F /  9.7 °C 48.1 °F /  8.9 °C 29.99 in /  1015.5 hPa SE 4.0 mph /  6.4 km/h 8.0 mph /  12.9 km/h 95 % 0.01 in /  0.25 mm 0 W/m2
04:50 49.5 °F /  9.7 °C 48.1 °F /  8.9 °C 29.99 in /  1015.5 hPa SE 4.0 mph /  6.4 km/h 8.0 mph /  12.9 km/h 95 % 0.01 in /  0.25 mm 0 W/m2
05:00 49.5 °F /  9.7 °C 48.1 °F /  8.9 °C 29.99 in /  1015.5 hPa SE 3.0 mph /  4.8 km/h 6.0 mph /  9.7 km/h 95 % 0.01 in /  0.25 mm 0 W/m2
05:05 49.5 °F /  9.7 °C 48.1 °F /  8.9 °C 29.99 in /  1015.5 hPa SE 3.0 mph /  4.8 km/h 6.0 mph /  9.7 km/h 95 % 0.01 in /  0.25 mm 0 W/m2
05:10 49.5 °F /  9.7 °C 48.1 °F /  8.9 °C 29.99 in /  1015.5 hPa SE 4.0 mph /  6.4 km/h 8.0 mph /  12.9 km/h 95 % 0.00 in /  0 mm 0 W/m2
05:15 49.5 °F /  9.7 °C 48.4 °F /  9.1 °C 30.00 in /  1015.8 hPa SE 4.0 mph /  6.4 km/h 8.0 mph /  12.9 km/h 96 % 0.00 in /  0 mm 0 W/m2
05:20 49.6 °F /  9.8 °C 48.5 °F /  9.2 °C 30.00 in /  1015.8 hPa SE 3.0 mph /  4.8 km/h 6.0 mph /  9.7 km/h 96 % 0.00 in /  0 mm 0 W/m2
05:25 49.6 °F /  9.8 °C 48.5 °F /  9.2 °C 30.00 in /  1015.8 hPa SE 3.0 mph /  4.8 km/h 6.0 mph /  9.7 km/h 96 % 0.00 in /  0 mm 0 W/m2
05:30 49.6 °F /  9.8 °C 48.5 °F /  9.2 °C 30.00 in /  1015.8 hPa ESE 3.0 mph /  4.8 km/h 6.0 mph /  9.7 km/h 96 % 0.00 in /  0 mm 0 W/m2
05:35 49.6 °F /  9.8 °C 48.5 °F /  9.2 °C 30.00 in /  1015.8 hPa ESE 3.0 mph /  4.8 km/h 6.0 mph /  9.7 km/h 96 % 0.00 in /  0 mm 0 W/m2
05:40 49.6 °F /  9.8 °C 48.5 °F /  9.2 °C 30.00 in /  1015.8 hPa ESE 3.0 mph /  4.8 km/h 6.0 mph /  9.7 km/h 96 % 0.00 in /  0 mm 0 W/m2
05:45 49.6 °F /  9.8 °C 48.5 °F /  9.2 °C 30.00 in /  1015.8 hPa ESE 3.0 mph /  4.8 km/h 6.0 mph /  9.7 km/h 96 % 0.00 in /  0 mm 0 W/m2
05:50 49.6 °F /  9.8 °C 48.5 °F /  9.2 °C 30.00 in /  1015.8 hPa ESE 2.0 mph /  3.2 km/h 6.0 mph /  9.7 km/h 96 % 0.00 in /  0 mm 0 W/m2
05:55 49.6 °F /  9.8 °C 48.5 °F /  9.2 °C 30.00 in /  1015.8 hPa ESE 1.0 mph /  1.6 km/h 4.0 mph /  6.4 km/h 96 % 0.00 in /  0 mm 0 W/m2
06:01 49.6 °F /  9.8 °C 48.5 °F /  9.2 °C 30.00 in /  1015.8 hPa ESE 1.0 mph /  1.6 km/h 5.0 mph /  8 km/h 96 % 0.00 in /  0 mm 0 W/m2
06:06 49.6 °F /  9.8 °C 48.5 °F /  9.2 °C 30.00 in /  1015.8 hPa ESE 1.0 mph /  1.6 km/h 5.0 mph /  8 km/h 96 % 0.00 in /  0 mm 0 W/m2
06:11 49.8 °F /  9.9 °C 48.7 °F /  9.3 °C 30.00 in /  1015.8 hPa ESE 1.0 mph /  1.6 km/h 3.0 mph /  4.8 km/h 96 % 0.00 in /  0 mm 0 W/m2
06:16 49.8 °F /  9.9 °C 48.7 °F /  9.3 °C 30.00 in /  1015.8 hPa ESE 1.0 mph /  1.6 km/h 5.0 mph /  8 km/h 96 % 0.00 in /  0 mm 0 W/m2
06:21 49.8 °F /  9.9 °C 48.7 °F /  9.3 °C 30.00 in /  1015.8 hPa ESE 1.0 mph /  1.6 km/h 5.0 mph /  8 km/h 96 % 0.00 in /  0 mm 0 W/m2
06:26 49.8 °F /  9.9 °C 48.7 °F /  9.3 °C 30.00 in /  1015.8 hPa ESE 1.0 mph /  1.6 km/h 5.0 mph /  8 km/h 96 % 0.00 in /  0 mm 0 W/m2
06:31 49.8 °F /  9.9 °C 48.7 °F /  9.3 °C 30.00 in /  1015.8 hPa ESE 1.0 mph /  1.6 km/h 5.0 mph /  8 km/h 96 % 0.00 in /  0 mm 0 W/m2
06:36 49.8 °F /  9.9 °C 48.7 °F /  9.3 °C 30.00 in /  1015.8 hPa ESE 1.0 mph /  1.6 km/h 5.0 mph /  8 km/h 96 % 0.00 in /  0 mm 0 W/m2
06:38 50.0 °F /  10 °C 48.9 °F /  9.4 °C 30.00 in /  1015.8 hPa ESE 1.0 mph /  1.6 km/h 4.0 mph /  6.4 km/h 96 % 0.00 in /  0 mm 0 W/m2
06:43 50.0 °F /  10 °C 48.9 °F /  9.4 °C 30.00 in /  1015.8 hPa ESE 1.0 mph /  1.6 km/h 4.0 mph /  6.4 km/h 96 % 0.00 in /  0 mm 0 W/m2
06:48 50.2 °F /  10.1 °C 49.1 °F /  9.5 °C 30.00 in /  1015.8 hPa ESE 1.0 mph /  1.6 km/h 4.0 mph /  6.4 km/h 96 % 0.00 in /  0 mm 0 W/m2
06:53 50.2 °F /  10.1 °C 49.1 °F /  9.5 °C 30.00 in /  1015.8 hPa ESE 2.0 mph /  3.2 km/h 5.0 mph /  8 km/h 96 % 0.00 in /  0 mm 0 W/m2
06:58 50.2 °F /  10.1 °C 49.1 °F /  9.5 °C 30.00 in /  1015.8 hPa ESE 1.0 mph /  1.6 km/h 5.0 mph /  8 km/h 96 % 0.00 in /  0 mm 0 W/m2
07:03 50.2 °F /  10.1 °C 49.1 °F /  9.5 °C 30.00 in /  1015.8 hPa Calm   1.0 mph /  1.6 km/h 96 % 0.00 in /  0 mm 5 W/m2
07:08 50.4 °F /  10.2 °C 49.3 °F /  9.6 °C 30.01 in /  1016.1 hPa Calm   2.0 mph /  3.2 km/h 96 % 0.00 in /  0 mm 5 W/m2
07:13 50.4 °F /  10.2 °C 49.3 °F /  9.6 °C 30.01 in /  1016.1 hPa Calm   2.0 mph /  3.2 km/h 96 % 0.00 in /  0 mm 7 W/m2
07:18 50.4 °F /  10.2 °C 49.3 °F /  9.6 °C 30.01 in /  1016.1 hPa Calm   4.0 mph /  6.4 km/h 96 % 0.00 in /  0 mm 9 W/m2
07:23 50.4 °F /  10.2 °C 49.3 °F /  9.6 °C 30.01 in /  1016.1 hPa Calm   4.0 mph /  6.4 km/h 96 % 0.00 in /  0 mm 9 W/m2
07:28 50.5 °F /  10.3 °C 49.4 °F /  9.7 °C 30.02 in /  1016.5 hPa Calm   3.0 mph /  4.8 km/h 96 % 0.00 in /  0 mm 11 W/m2
07:33 50.5 °F /  10.3 °C 49.7 °F /  9.8 °C 30.02 in /  1016.5 hPa Calm   3.0 mph /  4.8 km/h 97 % 0.00 in /  0 mm 16 W/m2
07:38 50.7 °F /  10.4 °C 49.6 °F /  9.8 °C 30.02 in /  1016.5 hPa Calm   2.0 mph /  3.2 km/h 96 % 0.00 in /  0 mm 18 W/m2
07:43 50.7 °F /  10.4 °C 49.6 °F /  9.8 °C 30.02 in /  1016.5 hPa WSW 1.0 mph /  1.6 km/h 7.0 mph /  11.3 km/h 96 % 0.00 in /  0 mm 19 W/m2
07:48 50.9 °F /  10.5 °C 49.8 °F /  9.9 °C 30.02 in /  1016.5 hPa West 1.0 mph /  1.6 km/h 7.0 mph /  11.3 km/h 96 % 0.00 in /  0 mm 25 W/m2
07:53 51.1 °F /  10.6 °C 50.0 °F /  10 °C 30.02 in /  1016.5 hPa Calm   4.0 mph /  6.4 km/h 96 % 0.00 in /  0 mm 28 W/m2
07:58 51.1 °F /  10.6 °C 50.0 °F /  10 °C 30.02 in /  1016.5 hPa Calm   3.0 mph /  4.8 km/h 96 % 0.00 in /  0 mm 26 W/m2
08:03 51.3 °F /  10.7 °C 50.2 °F /  10.1 °C 30.02 in /  1016.5 hPa Calm   3.0 mph /  4.8 km/h 96 % 0.00 in /  0 mm 28 W/m2
08:08 51.4 °F /  10.8 °C 50.3 °F /  10.2 °C 30.03 in /  1016.8 hPa Calm   3.0 mph /  4.8 km/h 96 % 0.00 in /  0 mm 35 W/m2
08:13 51.4 °F /  10.8 °C 50.3 °F /  10.2 °C 30.03 in /  1016.8 hPa Calm   2.0 mph /  3.2 km/h 96 % 0.00 in /  0 mm 44 W/m2
08:18 51.4 °F /  10.8 °C 50.1 °F /  10.1 °C 30.03 in /  1016.8 hPa Calm   1.0 mph /  1.6 km/h 95 % 0.00 in /  0 mm 56 W/m2
08:23 51.6 °F /  10.9 °C 50.2 °F /  10.1 °C 30.03 in /  1016.8 hPa Calm   1.0 mph /  1.6 km/h 95 % 0.00 in /  0 mm 83 W/m2
08:28 51.8 °F /  11 °C 50.4 °F /  10.2 °C 30.03 in /  1016.8 hPa West 1.0 mph /  1.6 km/h 6.0 mph /  9.7 km/h 95 % 0.00 in /  0 mm 67 W/m2
08:33 52.0 °F /  11.1 °C 50.6 °F /  10.3 °C 30.03 in /  1016.8 hPa West 1.0 mph /  1.6 km/h 6.0 mph /  9.7 km/h 95 % 0.00 in /  0 mm 70 W/m2
08:38 52.2 °F /  11.2 °C 50.8 °F /  10.4 °C 30.03 in /  1016.8 hPa WSW 2.0 mph /  3.2 km/h 6.0 mph /  9.7 km/h 95 % 0.00 in /  0 mm 104 W/m2
08:43 52.5 °F /  11.4 °C 51.1 °F /  10.6 °C 30.03 in /  1016.8 hPa WSW 3.0 mph /  4.8 km/h 11.0 mph /  17.7 km/h 95 % 0.00 in /  0 mm 121 W/m2
08:48 52.7 °F /  11.5 °C 51.0 °F /  10.6 °C 30.03 in /  1016.8 hPa West 4.0 mph /  6.4 km/h 11.0 mph /  17.7 km/h 94 % 0.00 in /  0 mm 146 W/m2
08:53 53.1 °F /  11.7 °C 51.4 °F /  10.8 °C 30.03 in /  1016.8 hPa West 5.0 mph /  8 km/h 11.0 mph /  17.7 km/h 94 % 0.00 in /  0 mm 109 W/m2
08:58 53.2 °F /  11.8 °C 51.3 °F /  10.7 °C 30.03 in /  1016.8 hPa WSW 6.0 mph /  9.7 km/h 11.0 mph /  17.7 km/h 93 % 0.00 in /  0 mm 88 W/m2
09:03 53.4 °F /  11.9 °C 51.2 °F /  10.7 °C 30.04 in /  1017.2 hPa WSW 6.0 mph /  9.7 km/h 12.0 mph /  19.3 km/h 92 % 0.00 in /  0 mm 97 W/m2
09:08 53.8 °F /  12.1 °C 51.5 °F /  10.8 °C 30.04 in /  1017.2 hPa WSW 7.0 mph /  11.3 km/h 14.0 mph /  22.5 km/h 92 % 0.00 in /  0 mm 111 W/m2
09:13 54.0 °F /  12.2 °C 51.4 °F /  10.8 °C 30.04 in /  1017.2 hPa WSW 8.0 mph /  12.9 km/h 14.0 mph /  22.5 km/h 91 % 0.00 in /  0 mm 107 W/m2
09:18 54.0 °F /  12.2 °C 51.4 °F /  10.8 °C 30.03 in /  1016.8 hPa WSW 8.0 mph /  12.9 km/h 15.0 mph /  24.1 km/h 91 % 0.00 in /  0 mm 109 W/m2
09:23 54.1 °F /  12.3 °C 51.3 °F /  10.7 °C 30.03 in /  1016.8 hPa WSW 8.0 mph /  12.9 km/h 15.0 mph /  24.1 km/h 90 % 0.00 in /  0 mm 139 W/m2
09:28 54.1 °F /  12.3 °C 51.3 °F /  10.7 °C 30.03 in /  1016.8 hPa WSW 7.0 mph /  11.3 km/h 13.0 mph /  20.9 km/h 90 % 0.00 in /  0 mm 156 W/m2
09:33 54.1 °F /  12.3 °C 51.3 °F /  10.7 °C 30.03 in /  1016.8 hPa WSW 7.0 mph /  11.3 km/h 12.0 mph /  19.3 km/h 90 % 0.00 in /  0 mm 149 W/m2
09:38 54.3 °F /  12.4 °C 51.4 °F /  10.8 °C 30.04 in /  1017.2 hPa SW 6.0 mph /  9.7 km/h 12.0 mph /  19.3 km/h 90 % 0.00 in /  0 mm 139 W/m2
09:43 54.3 °F /  12.4 °C 51.4 °F /  10.8 °C 30.04 in /  1017.2 hPa SW 4.0 mph /  6.4 km/h 9.0 mph /  14.5 km/h 90 % 0.00 in /  0 mm 120 W/m2
09:48 54.5 °F /  12.5 °C 51.6 °F /  10.9 °C 30.04 in /  1017.2 hPa SSW 3.0 mph /  4.8 km/h 8.0 mph /  12.9 km/h 90 % 0.00 in /  0 mm 114 W/m2
09:53 54.7 °F /  12.6 °C 51.5 °F /  10.8 °C 30.04 in /  1017.2 hPa SW 5.0 mph /  8 km/h 11.0 mph /  17.7 km/h 89 % 0.00 in /  0 mm 121 W/m2
09:58 54.7 °F /  12.6 °C 51.5 °F /  10.8 °C 30.04 in /  1017.2 hPa WSW 5.0 mph /  8 km/h 11.0 mph /  17.7 km/h 89 % 0.00 in /  0 mm 128 W/m2
10:03 54.9 °F /  12.7 °C 51.7 °F /  10.9 °C 30.04 in /  1017.2 hPa WSW 4.0 mph /  6.4 km/h 10.0 mph /  16.1 km/h 89 % 0.00 in /  0 mm 105 W/m2
10:08 55.0 °F /  12.8 °C 51.9 °F /  11.1 °C 30.04 in /  1017.2 hPa WSW 3.0 mph /  4.8 km/h 9.0 mph /  14.5 km/h 89 % 0.00 in /  0 mm 100 W/m2
10:13 55.0 °F /  12.8 °C 51.5 °F /  10.8 °C 30.05 in /  1017.5 hPa SW 3.0 mph /  4.8 km/h 9.0 mph /  14.5 km/h 88 % 0.00 in /  0 mm 102 W/m2
10:18 55.2 °F /  12.9 °C 51.7 °F /  10.9 °C 30.05 in /  1017.5 hPa SW 5.0 mph /  8 km/h 10.0 mph /  16.1 km/h 88 % 0.00 in /  0 mm 83 W/m2
10:23 55.2 °F /  12.9 °C 51.4 °F /  10.8 °C 30.05 in /  1017.5 hPa SSW 5.0 mph /  8 km/h 10.0 mph /  16.1 km/h 87 % 0.00 in /  0 mm 135 W/m2
10:28 55.2 °F /  12.9 °C 51.4 °F /  10.8 °C 30.05 in /  1017.5 hPa SW 5.0 mph /  8 km/h 11.0 mph /  17.7 km/h 87 % 0.00 in /  0 mm 135 W/m2
10:33 55.4 °F /  13 °C 51.6 °F /  10.9 °C 30.05 in /  1017.5 hPa SW 5.0 mph /  8 km/h 11.0 mph /  17.7 km/h 87 % 0.00 in /  0 mm 199 W/m2
10:38 55.6 °F /  13.1 °C 51.8 °F /  11 °C 30.05 in /  1017.5 hPa SW 3.0 mph /  4.8 km/h 9.0 mph /  14.5 km/h 87 % 0.00 in /  0 mm 165 W/m2
10:43 55.8 °F /  13.2 °C 51.6 °F /  10.9 °C 30.05 in /  1017.5 hPa SSW 3.0 mph /  4.8 km/h 8.0 mph /  12.9 km/h 86 % 0.00 in /  0 mm 107 W/m2
10:48 55.8 °F /  13.2 °C 51.6 °F /  10.9 °C 30.05 in /  1017.5 hPa SSW 4.0 mph /  6.4 km/h 9.0 mph /  14.5 km/h 86 % 0.00 in /  0 mm 113 W/m2
10:53 55.8 °F /  13.2 °C 51.3 °F /  10.7 °C 30.06 in /  1017.8 hPa SSW 5.0 mph /  8 km/h 12.0 mph /  19.3 km/h 85 % 0.00 in /  0 mm 91 W/m2
10:58 55.8 °F /  13.2 °C 51.3 °F /  10.7 °C 30.06 in /  1017.8 hPa SSW 7.0 mph /  11.3 km/h 15.0 mph /  24.1 km/h 85 % 0.00 in /  0 mm 104 W/m2
11:03 55.8 °F /  13.2 °C 51.3 °F /  10.7 °C 30.06 in /  1017.8 hPa SSW 7.0 mph /  11.3 km/h 15.0 mph /  24.1 km/h 85 % 0.00 in /  0 mm 174 W/m2
11:08 55.9 °F /  13.3 °C 51.5 °F /  10.8 °C 30.06 in /  1017.8 hPa SSW 7.0 mph /  11.3 km/h 14.0 mph /  22.5 km/h 85 % 0.00 in /  0 mm 107 W/m2
11:14 55.9 °F /  13.3 °C 51.2 °F /  10.7 °C 30.06 in /  1017.8 hPa SSW 7.0 mph /  11.3 km/h 14.0 mph /  22.5 km/h 84 % 0.00 in /  0 mm 109 W/m2
11:19 55.9 °F /  13.3 °C 51.2 °F /  10.7 °C 30.06 in /  1017.8 hPa SSW 8.0 mph /  12.9 km/h 14.0 mph /  22.5 km/h 84 % 0.00 in /  0 mm 107 W/m2
11:24 55.9 °F /  13.3 °C 51.2 °F /  10.7 °C 30.06 in /  1017.8 hPa SSW 8.0 mph /  12.9 km/h 14.0 mph /  22.5 km/h 84 % 0.00 in /  0 mm 118 W/m2
11:29 55.9 °F /  13.3 °C 50.9 °F /  10.5 °C 30.06 in /  1017.8 hPa SSW 8.0 mph /  12.9 km/h 15.0 mph /  24.1 km/h 83 % 0.00 in /  0 mm 90 W/m2
11:34 55.9 °F /  13.3 °C 50.9 °F /  10.5 °C 30.07 in /  1018.2 hPa SSW 8.0 mph /  12.9 km/h 15.0 mph /  24.1 km/h 83 % 0.00 in /  0 mm 84 W/m2
11:39 56.1 °F /  13.4 °C 51.0 °F /  10.6 °C 30.06 in /  1017.8 hPa SSW 6.0 mph /  9.7 km/h 14.0 mph /  22.5 km/h 83 % 0.00 in /  0 mm 72 W/m2
11:44 56.1 °F /  13.4 °C 51.0 °F /  10.6 °C 30.07 in /  1018.2 hPa SSW 4.0 mph /  6.4 km/h 9.0 mph /  14.5 km/h 83 % 0.00 in /  0 mm 69 W/m2
11:49 56.1 °F /  13.4 °C 51.0 °F /  10.6 °C 30.07 in /  1018.2 hPa SSW 3.0 mph /  4.8 km/h 9.0 mph /  14.5 km/h 83 % 0.00 in /  0 mm 65 W/m2
11:54 56.1 °F /  13.4 °C 51.0 °F /  10.6 °C 30.06 in /  1017.8 hPa SSW 4.0 mph /  6.4 km/h 9.0 mph /  14.5 km/h 83 % 0.00 in /  0 mm 93 W/m2
11:59 56.3 °F /  13.5 °C 51.5 °F /  10.8 °C 30.06 in /  1017.8 hPa SSW 5.0 mph /  8 km/h 20.0 mph /  32.2 km/h 84 % 0.00 in /  0 mm 121 W/m2
12:04 56.3 °F /  13.5 °C 51.5 °F /  10.8 °C 30.06 in /  1017.8 hPa SSW 6.0 mph /  9.7 km/h 20.0 mph /  32.2 km/h 84 % 0.00 in /  0 mm 107 W/m2
12:09 56.1 °F /  13.4 °C 51.4 °F /  10.8 °C 30.06 in /  1017.8 hPa SW 7.0 mph /  11.3 km/h 13.0 mph /  20.9 km/h 84 % 0.00 in /  0 mm 158 W/m2
12:14 56.3 °F /  13.5 °C 51.8 °F /  11 °C 30.06 in /  1017.8 hPa SW 7.0 mph /  11.3 km/h 12.0 mph /  19.3 km/h 85 % 0.00 in /  0 mm 178 W/m2
12:19 56.1 °F /  13.4 °C 51.7 °F /  10.9 °C 30.06 in /  1017.8 hPa SW 8.0 mph /  12.9 km/h 19.0 mph /  30.6 km/h 85 % 0.00 in /  0 mm 241 W/m2
12:24 56.3 °F /  13.5 °C 51.8 °F /  11 °C 30.06 in /  1017.8 hPa SW 10.0 mph /  16.1 km/h 20.0 mph /  32.2 km/h 85 % 0.00 in /  0 mm 204 W/m2
12:29 56.3 °F /  13.5 °C 51.8 °F /  11 °C 30.05 in /  1017.5 hPa SW 11.0 mph /  17.7 km/h 20.0 mph /  32.2 km/h 85 % 0.00 in /  0 mm 197 W/m2
12:34 56.5 °F /  13.6 °C 52.0 °F /  11.1 °C 30.06 in /  1017.8 hPa SW 10.0 mph /  16.1 km/h 18.0 mph /  29 km/h 85 % 0.00 in /  0 mm 234 W/m2
12:39 56.5 °F /  13.6 °C 52.0 °F /  11.1 °C 30.06 in /  1017.8 hPa SW 9.0 mph /  14.5 km/h 18.0 mph /  29 km/h 85 % 0.00 in /  0 mm 341 W/m2
12:44 56.8 °F /  13.8 °C 52.4 °F /  11.3 °C 30.05 in /  1017.5 hPa SW 8.0 mph /  12.9 km/h 18.0 mph /  29 km/h 85 % 0.00 in /  0 mm 566 W/m2
12:49 57.4 °F /  14.1 °C 52.3 °F /  11.3 °C 30.06 in /  1017.8 hPa SW 9.0 mph /  14.5 km/h 18.0 mph /  29 km/h 83 % 0.00 in /  0 mm 410 W/m2
12:54 57.7 °F /  14.3 °C 52.6 °F /  11.4 °C 30.06 in /  1017.8 hPa SW 11.0 mph /  17.7 km/h 18.0 mph /  29 km/h 83 % 0.00 in /  0 mm 394 W/m2
12:59 57.9 °F /  14.4 °C 52.5 °F /  11.4 °C 30.05 in /  1017.5 hPa SW 11.0 mph /  17.7 km/h 24.0 mph /  38.6 km/h 82 % 0.00 in /  0 mm 329 W/m2
13:04 57.9 °F /  14.4 °C 52.5 °F /  11.4 °C 30.06 in /  1017.8 hPa SW 12.0 mph /  19.3 km/h 24.0 mph /  38.6 km/h 82 % 0.00 in /  0 mm 278 W/m2
13:09 57.6 °F /  14.2 °C 51.8 °F /  11 °C 30.06 in /  1017.8 hPa SW 10.0 mph /  16.1 km/h 20.0 mph /  32.2 km/h 81 % 0.00 in /  0 mm 197 W/m2
13:14 57.4 °F /  14.1 °C 51.9 °F /  11.1 °C 30.06 in /  1017.8 hPa SW 10.0 mph /  16.1 km/h 19.0 mph /  30.6 km/h 82 % 0.00 in /  0 mm 176 W/m2
13:19 57.2 °F /  14 °C 51.8 °F /  11 °C 30.05 in /  1017.5 hPa SW 10.0 mph /  16.1 km/h 19.0 mph /  30.6 km/h 82 % 0.00 in /  0 mm 167 W/m2
13:24 56.8 °F /  13.8 °C 51.4 °F /  10.8 °C 30.06 in /  1017.8 hPa SSW 10.0 mph /  16.1 km/h 19.0 mph /  30.6 km/h 82 % 0.00 in /  0 mm 149 W/m2
13:29 56.8 °F /  13.8 °C 51.7 °F /  10.9 °C 30.06 in /  1017.8 hPa SSW 10.0 mph /  16.1 km/h 22.0 mph /  35.4 km/h 83 % 0.00 in /  0 mm 134 W/m2
13:34 56.7 °F /  13.7 °C 51.6 °F /  10.9 °C 30.05 in /  1017.5 hPa SSW 11.0 mph /  17.7 km/h 22.0 mph /  35.4 km/h 83 % 0.00 in /  0 mm 111 W/m2
13:39 56.5 °F /  13.6 °C 51.4 °F /  10.8 °C 30.05 in /  1017.5 hPa SSW 10.0 mph /  16.1 km/h 21.0 mph /  33.8 km/h 83 % 0.00 in /  0 mm 134 W/m2
13:44 56.5 °F /  13.6 °C 51.4 °F /  10.8 °C 30.05 in /  1017.5 hPa SW 8.0 mph /  12.9 km/h 20.0 mph /  32.2 km/h 83 % 0.00 in /  0 mm 148 W/m2
13:49 56.5 °F /  13.6 °C 51.7 °F /  10.9 °C 30.05 in /  1017.5 hPa SW 7.0 mph /  11.3 km/h 12.0 mph /  19.3 km/h 84 % 0.00 in /  0 mm 135 W/m2
13:54 56.7 °F /  13.7 °C 51.6 °F /  10.9 °C 30.05 in /  1017.5 hPa SW 7.0 mph /  11.3 km/h 13.0 mph /  20.9 km/h 83 % 0.00 in /  0 mm 118 W/m2
13:59 56.7 °F /  13.7 °C 51.6 °F /  10.9 °C 30.05 in /  1017.5 hPa SSW 8.0 mph /  12.9 km/h 15.0 mph /  24.1 km/h 83 % 0.00 in /  0 mm 134 W/m2
14:04 56.7 °F /  13.7 °C 51.9 °F /  11.1 °C 30.04 in /  1017.2 hPa SW 8.0 mph /  12.9 km/h 15.0 mph /  24.1 km/h 84 % 0.00 in /  0 mm 155 W/m2
14:09 56.8 °F /  13.8 °C 52.1 °F /  11.2 °C 30.04 in /  1017.2 hPa SSW 6.0 mph /  9.7 km/h 14.0 mph /  22.5 km/h 84 % 0.00 in /  0 mm 153 W/m2
14:14 56.8 °F /  13.8 °C 51.7 °F /  10.9 °C 30.04 in /  1017.2 hPa SSW 8.0 mph /  12.9 km/h 16.0 mph /  25.7 km/h 83 % 0.00 in /  0 mm 104 W/m2
14:19 56.8 °F /  13.8 °C 51.7 °F /  10.9 °C 30.04 in /  1017.2 hPa SSW 11.0 mph /  17.7 km/h 20.0 mph /  32.2 km/h 83 % 0.00 in /  0 mm 118 W/m2
14:24 56.8 °F /  13.8 °C 51.7 °F /  10.9 °C 30.04 in /  1017.2 hPa SSW 9.0 mph /  14.5 km/h 20.0 mph /  32.2 km/h 83 % 0.00 in /  0 mm 132 W/m2
14:29 57.0 °F /  13.9 °C 51.9 °F /  11.1 °C 30.05 in /  1017.5 hPa SSW 7.0 mph /  11.3 km/h 12.0 mph /  19.3 km/h 83 % 0.00 in /  0 mm 123 W/m2
14:34 57.0 °F /  13.9 °C 51.9 °F /  11.1 °C 30.05 in /  1017.5 hPa SSW 7.0 mph /  11.3 km/h 13.0 mph /  20.9 km/h 83 % 0.00 in /  0 mm 113 W/m2
14:39 57.2 °F /  14 °C 52.4 °F /  11.3 °C 30.04 in /  1017.2 hPa SW 7.0 mph /  11.3 km/h 15.0 mph /  24.1 km/h 84 % 0.00 in /  0 mm 91 W/m2
14:44 57.0 °F /  13.9 °C 52.6 °F /  11.4 °C 30.05 in /  1017.5 hPa SW 6.0 mph /  9.7 km/h 15.0 mph /  24.1 km/h 85 % 0.00 in /  0 mm 90 W/m2
14:49 57.0 °F /  13.9 °C 52.6 °F /  11.4 °C 30.04 in /  1017.2 hPa SSW 7.0 mph /  11.3 km/h 12.0 mph /  19.3 km/h 85 % 0.00 in /  0 mm 81 W/m2
14:54 56.8 °F /  13.8 °C 52.7 °F /  11.5 °C 30.04 in /  1017.2 hPa SSW 9.0 mph /  14.5 km/h 19.0 mph /  30.6 km/h 86 % 0.01 in /  0.25 mm 100 W/m2
14:59 56.5 °F /  13.6 °C 52.7 °F /  11.5 °C 30.04 in /  1017.2 hPa SSW 11.0 mph /  17.7 km/h 20.0 mph /  32.2 km/h 87 % 0.01 in /  0.25 mm 98 W/m2
15:05 56.1 °F /  13.4 °C 52.6 °F /  11.4 °C 30.04 in /  1017.2 hPa SW 10.0 mph /  16.1 km/h 20.0 mph /  32.2 km/h 88 % 0.01 in /  0.25 mm 149 W/m2
15:10 56.1 °F /  13.4 °C 52.9 °F /  11.6 °C 30.04 in /  1017.2 hPa SW 8.0 mph /  12.9 km/h 14.0 mph /  22.5 km/h 89 % 0.02 in /  0.51 mm 200 W/m2
15:15 56.1 °F /  13.4 °C 53.2 °F /  11.8 °C 30.03 in /  1016.8 hPa SSW 8.0 mph /  12.9 km/h 14.0 mph /  22.5 km/h 90 % 0.02 in /  0.51 mm 153 W/m2
15:20 56.1 °F /  13.4 °C 53.2 °F /  11.8 °C 30.03 in /  1016.8 hPa SSW 8.0 mph /  12.9 km/h 20.0 mph /  32.2 km/h 90 % 0.02 in /  0.51 mm 155 W/m2
15:25 56.1 °F /  13.4 °C 53.2 °F /  11.8 °C 30.03 in /  1016.8 hPa SSW 9.0 mph /  14.5 km/h 20.0 mph /  32.2 km/h 90 % 0.02 in /  0.51 mm 144 W/m2
15:30 56.1 °F /  13.4 °C 53.2 °F /  11.8 °C 30.03 in /  1016.8 hPa SSW 8.0 mph /  12.9 km/h 15.0 mph /  24.1 km/h 90 % 0.02 in /  0.51 mm 107 W/m2
15:35 56.1 °F /  13.4 °C 52.9 °F /  11.6 °C 30.03 in /  1016.8 hPa SSW 8.0 mph /  12.9 km/h 15.0 mph /  24.1 km/h 89 % 0.02 in /  0.51 mm 149 W/m2
15:40 56.3 °F /  13.5 °C 53.4 °F /  11.9 °C 30.02 in /  1016.5 hPa SSW 9.0 mph /  14.5 km/h 13.0 mph /  20.9 km/h 90 % 0.02 in /  0.51 mm 148 W/m2
15:45 56.5 °F /  13.6 °C 53.3 °F /  11.8 °C 30.02 in /  1016.5 hPa SSW 8.0 mph /  12.9 km/h 14.0 mph /  22.5 km/h 89 % 0.02 in /  0.51 mm 127 W/m2
15:50 56.5 °F /  13.6 °C 53.3 °F /  11.8 °C 30.02 in /  1016.5 hPa SSW 7.0 mph /  11.3 km/h 14.0 mph /  22.5 km/h 89 % 0.02 in /  0.51 mm 120 W/m2
15:55 56.5 °F /  13.6 °C 53.0 °F /  11.7 °C 30.02 in /  1016.5 hPa SSW 8.0 mph /  12.9 km/h 15.0 mph /  24.1 km/h 88 % 0.01 in /  0.25 mm 83 W/m2
16:00 56.5 °F /  13.6 °C 53.3 °F /  11.8 °C 30.02 in /  1016.5 hPa SSW 9.0 mph /  14.5 km/h 15.0 mph /  24.1 km/h 89 % 0.01 in /  0.25 mm 93 W/m2
16:05 56.5 °F /  13.6 °C 53.3 °F /  11.8 °C 30.02 in /  1016.5 hPa SSW 9.0 mph /  14.5 km/h 14.0 mph /  22.5 km/h 89 % 0.01 in /  0.25 mm 118 W/m2
16:10 56.3 °F /  13.5 °C 53.1 °F /  11.7 °C 30.02 in /  1016.5 hPa SSW 10.0 mph /  16.1 km/h 16.0 mph /  25.7 km/h 89 % 0.00 in /  0 mm 120 W/m2
16:15 56.5 °F /  13.6 °C 53.3 °F /  11.8 °C 30.02 in /  1016.5 hPa SSW 10.0 mph /  16.1 km/h 16.0 mph /  25.7 km/h 89 % 0.00 in /  0 mm 116 W/m2
16:20 56.5 °F /  13.6 °C 53.3 °F /  11.8 °C 30.02 in /  1016.5 hPa SSW 11.0 mph /  17.7 km/h 21.0 mph /  33.8 km/h 89 % 0.00 in /  0 mm 125 W/m2
16:25 56.5 °F /  13.6 °C 53.3 °F /  11.8 °C 30.02 in /  1016.5 hPa SSW 12.0 mph /  19.3 km/h 21.0 mph /  33.8 km/h 89 % 0.00 in /  0 mm 84 W/m2
16:30 56.5 °F /  13.6 °C 53.0 °F /  11.7 °C 30.01 in /  1016.1 hPa SSW 13.0 mph /  20.9 km/h 21.0 mph /  33.8 km/h 88 % 0.00 in /  0 mm 83 W/m2
16:35 56.5 °F /  13.6 °C 53.3 °F /  11.8 °C 30.01 in /  1016.1 hPa SSW 12.0 mph /  19.3 km/h 21.0 mph /  33.8 km/h 89 % 0.00 in /  0 mm 98 W/m2
16:40 56.5 °F /  13.6 °C 53.3 °F /  11.8 °C 30.01 in /  1016.1 hPa SSW 11.0 mph /  17.7 km/h 21.0 mph /  33.8 km/h 89 % 0.00 in /  0 mm 118 W/m2
16:45 56.7 °F /  13.7 °C 53.5 °F /  11.9 °C 30.01 in /  1016.1 hPa SSW 12.0 mph /  19.3 km/h 21.0 mph /  33.8 km/h 89 % 0.00 in /  0 mm 128 W/m2
16:50 56.7 °F /  13.7 °C 53.5 °F /  11.9 °C 30.01 in /  1016.1 hPa SSW 12.0 mph /  19.3 km/h 21.0 mph /  33.8 km/h 89 % 0.00 in /  0 mm 125 W/m2
16:55 56.8 °F /  13.8 °C 53.3 °F /  11.8 °C 30.01 in /  1016.1 hPa SSW 12.0 mph /  19.3 km/h 22.0 mph /  35.4 km/h 88 % 0.00 in /  0 mm 132 W/m2
17:00 56.8 °F /  13.8 °C 53.3 °F /  11.8 °C 30.01 in /  1016.1 hPa SSW 12.0 mph /  19.3 km/h 22.0 mph /  35.4 km/h 88 % 0.00 in /  0 mm 116 W/m2
17:05 57.0 °F /  13.9 °C 53.5 °F /  11.9 °C 30.01 in /  1016.1 hPa SSW 12.0 mph /  19.3 km/h 24.0 mph /  38.6 km/h 88 % 0.00 in /  0 mm 111 W/m2
17:10 57.0 °F /  13.9 °C 53.5 °F /  11.9 °C 30.01 in /  1016.1 hPa SSW 13.0 mph /  20.9 km/h 24.0 mph /  38.6 km/h 88 % 0.00 in /  0 mm 139 W/m2
17:15 57.2 °F /  14 °C 53.7 °F /  12.1 °C 30.01 in /  1016.1 hPa SSW 12.0 mph /  19.3 km/h 19.0 mph /  30.6 km/h 88 % 0.00 in /  0 mm 165 W/m2
17:20 57.4 °F /  14.1 °C 53.9 °F /  12.2 °C 30.01 in /  1016.1 hPa SW 12.0 mph /  19.3 km/h 22.0 mph /  35.4 km/h 88 % 0.00 in /  0 mm 199 W/m2
17:25 57.4 °F /  14.1 °C 53.9 °F /  12.2 °C 30.01 in /  1016.1 hPa SSW 13.0 mph /  20.9 km/h 22.0 mph /  35.4 km/h 88 % 0.00 in /  0 mm 116 W/m2
17:30 57.4 °F /  14.1 °C 53.5 °F /  11.9 °C 30.01 in /  1016.1 hPa SSW 13.0 mph /  20.9 km/h 27.0 mph /  43.5 km/h 87 % 0.00 in /  0 mm 81 W/m2
17:35 57.2 °F /  14 °C 53.4 °F /  11.9 °C 30.01 in /  1016.1 hPa SSW 13.0 mph /  20.9 km/h 27.0 mph /  43.5 km/h 87 % 0.00 in /  0 mm 84 W/m2
17:40 57.0 °F /  13.9 °C 53.2 °F /  11.8 °C 30.00 in /  1015.8 hPa SSW 12.0 mph /  19.3 km/h 21.0 mph /  33.8 km/h 87 % 0.00 in /  0 mm 100 W/m2
17:45 57.0 °F /  13.9 °C 53.2 °F /  11.8 °C 30.00 in /  1015.8 hPa SSW 12.0 mph /  19.3 km/h 21.0 mph /  33.8 km/h 87 % 0.00 in /  0 mm 76 W/m2
17:50 57.0 °F /  13.9 °C 53.2 °F /  11.8 °C 30.01 in /  1016.1 hPa SSW 12.0 mph /  19.3 km/h 21.0 mph /  33.8 km/h 87 % 0.00 in /  0 mm 49 W/m2
17:55 57.0 °F /  13.9 °C 53.2 °F /  11.8 °C 30.01 in /  1016.1 hPa SSW 13.0 mph /  20.9 km/h 24.0 mph /  38.6 km/h 87 % 0.00 in /  0 mm 26 W/m2
18:00 57.0 °F /  13.9 °C 53.2 °F /  11.8 °C 30.01 in /  1016.1 hPa SSW 12.0 mph /  19.3 km/h 24.0 mph /  38.6 km/h 87 % 0.00 in /  0 mm 23 W/m2
18:05 56.8 °F /  13.8 °C 53.0 °F /  11.7 °C 30.01 in /  1016.1 hPa SSW 11.0 mph /  17.7 km/h 21.0 mph /  33.8 km/h 87 % 0.00 in /  0 mm 25 W/m2
18:10 56.8 °F /  13.8 °C 53.0 °F /  11.7 °C 30.01 in /  1016.1 hPa SSW 11.0 mph /  17.7 km/h 21.0 mph /  33.8 km/h 87 % 0.00 in /  0 mm 37 W/m2
18:15 56.8 °F /  13.8 °C 53.0 °F /  11.7 °C 30.01 in /  1016.1 hPa SSW 11.0 mph /  17.7 km/h 21.0 mph /  33.8 km/h 87 % 0.00 in /  0 mm 25 W/m2
18:20 56.7 °F /  13.7 °C 52.8 °F /  11.6 °C 30.01 in /  1016.1 hPa SSW 11.0 mph /  17.7 km/h 19.0 mph /  30.6 km/h 87 % 0.00 in /  0 mm 19 W/m2
18:25 56.7 °F /  13.7 °C 53.1 °F /  11.7 °C 30.01 in /  1016.1 hPa SSW 11.0 mph /  17.7 km/h 20.0 mph /  32.2 km/h 88 % 0.00 in /  0 mm 18 W/m2
18:30 56.7 °F /  13.7 °C 53.1 °F /  11.7 °C 30.01 in /  1016.1 hPa SSW 11.0 mph /  17.7 km/h 20.0 mph /  32.2 km/h 88 % 0.00 in /  0 mm 12 W/m2
18:35 56.5 °F /  13.6 °C 53.0 °F /  11.7 °C 30.01 in /  1016.1 hPa SSW 10.0 mph /  16.1 km/h 18.0 mph /  29 km/h 88 % 0.00 in /  0 mm 11 W/m2
18:41 56.5 °F /  13.6 °C 53.3 °F /  11.8 °C 30.01 in /  1016.1 hPa SSW 9.0 mph /  14.5 km/h 15.0 mph /  24.1 km/h 89 % 0.00 in /  0 mm 14 W/m2
18:46 56.1 °F /  13.4 °C 52.9 °F /  11.6 °C 30.01 in /  1016.1 hPa SSW 9.0 mph /  14.5 km/h 15.0 mph /  24.1 km/h 89 % 0.00 in /  0 mm 14 W/m2
18:51 55.9 °F /  13.3 °C 53.0 °F /  11.7 °C 30.01 in /  1016.1 hPa SSW 9.0 mph /  14.5 km/h 16.0 mph /  25.7 km/h 90 % 0.00 in /  0 mm 12 W/m2
18:56 55.8 °F /  13.2 °C 52.9 °F /  11.6 °C 30.01 in /  1016.1 hPa SSW 10.0 mph /  16.1 km/h 19.0 mph /  30.6 km/h 90 % 0.00 in /  0 mm 11 W/m2
19:01 55.8 °F /  13.2 °C 52.9 °F /  11.6 °C 30.01 in /  1016.1 hPa SSW 10.0 mph /  16.1 km/h 19.0 mph /  30.6 km/h 90 % 0.00 in /  0 mm 9 W/m2
19:06 55.6 °F /  13.1 °C 52.7 °F /  11.5 °C 30.01 in /  1016.1 hPa SW 11.0 mph /  17.7 km/h 18.0 mph /  29 km/h 90 % 0.00 in /  0 mm 7 W/m2
19:11 55.6 °F /  13.1 °C 53.0 °F /  11.7 °C 30.01 in /  1016.1 hPa SSW 11.0 mph /  17.7 km/h 19.0 mph /  30.6 km/h 91 % 0.00 in /  0 mm 5 W/m2
19:16 55.6 °F /  13.1 °C 53.0 °F /  11.7 °C 30.01 in /  1016.1 hPa SSW 10.0 mph /  16.1 km/h 19.0 mph /  30.6 km/h 91 % 0.00 in /  0 mm 0 W/m2
19:21 55.4 °F /  13 °C 52.8 °F /  11.6 °C 30.01 in /  1016.1 hPa SSW 10.0 mph /  16.1 km/h 19.0 mph /  30.6 km/h 91 % 0.00 in /  0 mm 0 W/m2
19:26 55.4 °F /  13 °C 52.8 °F /  11.6 °C 30.01 in /  1016.1 hPa SSW 11.0 mph /  17.7 km/h 21.0 mph /  33.8 km/h 91 % 0.00 in /  0 mm 0 W/m2
19:32 55.2 °F /  12.9 °C 52.6 °F /  11.4 °C 30.01 in /  1016.1 hPa SSW 11.0 mph /  17.7 km/h 21.0 mph /  33.8 km/h 91 % 0.00 in /  0 mm 0 W/m2
19:37 55.2 °F /  12.9 °C 52.6 °F /  11.4 °C 30.01 in /  1016.1 hPa SSW 11.0 mph /  17.7 km/h 19.0 mph /  30.6 km/h 91 % 0.00 in /  0 mm 0 W/m2
19:42 55.0 °F /  12.8 °C 52.5 °F /  11.4 °C 30.01 in /  1016.1 hPa SSW 10.0 mph /  16.1 km/h 16.0 mph /  25.7 km/h 91 % 0.00 in /  0 mm 0 W/m2
19:47 55.0 °F /  12.8 °C 52.5 °F /  11.4 °C 30.01 in /  1016.1 hPa SW 10.0 mph /  16.1 km/h 16.0 mph /  25.7 km/h 91 % 0.00 in /  0 mm 0 W/m2
19:52 55.0 °F /  12.8 °C 52.8 °F /  11.6 °C 30.01 in /  1016.1 hPa SW 9.0 mph /  14.5 km/h 14.0 mph /  22.5 km/h 92 % 0.00 in /  0 mm 0 W/m2
19:57 55.0 °F /  12.8 °C 52.8 °F /  11.6 °C 30.01 in /  1016.1 hPa SW 8.0 mph /  12.9 km/h 13.0 mph /  20.9 km/h 92 % 0.00 in /  0 mm 0 W/m2
20:02 55.0 °F /  12.8 °C 52.8 °F /  11.6 °C 30.01 in /  1016.1 hPa SW 9.0 mph /  14.5 km/h 16.0 mph /  25.7 km/h 92 % 0.00 in /  0 mm 0 W/m2
20:07 55.0 °F /  12.8 °C 52.8 °F /  11.6 °C 30.01 in /  1016.1 hPa SSW 10.0 mph /  16.1 km/h 16.0 mph /  25.7 km/h 92 % 0.00 in /  0 mm 0 W/m2
20:12 55.0 °F /  12.8 °C 52.8 °F /  11.6 °C 30.01 in /  1016.1 hPa SSW 10.0 mph /  16.1 km/h 19.0 mph /  30.6 km/h 92 % 0.00 in /  0 mm 0 W/m2
20:17 55.0 °F /  12.8 °C 52.5 °F /  11.4 °C 30.01 in /  1016.1 hPa SW 10.0 mph /  16.1 km/h 19.0 mph /  30.6 km/h 91 % 0.00 in /  0 mm 0 W/m2
20:22 55.0 °F /  12.8 °C 52.5 °F /  11.4 °C 30.01 in /  1016.1 hPa SW 10.0 mph /  16.1 km/h 19.0 mph /  30.6 km/h 91 % 0.00 in /  0 mm 0 W/m2
20:27 55.0 °F /  12.8 °C 52.5 °F /  11.4 °C 30.01 in /  1016.1 hPa SW 11.0 mph /  17.7 km/h 19.0 mph /  30.6 km/h 91 % 0.00 in /  0 mm 0 W/m2
20:32 55.2 °F /  12.9 °C 52.6 °F /  11.4 °C 30.01 in /  1016.1 hPa SW 12.0 mph /  19.3 km/h 21.0 mph /  33.8 km/h 91 % 0.00 in /  0 mm 0 W/m2
20:37 55.2 °F /  12.9 °C 52.6 °F /  11.4 °C 30.02 in /  1016.5 hPa SW 12.0 mph /  19.3 km/h 21.0 mph /  33.8 km/h 91 % 0.00 in /  0 mm 0 W/m2
20:42 55.2 °F /  12.9 °C 52.6 °F /  11.4 °C 30.02 in /  1016.5 hPa SW 12.0 mph /  19.3 km/h 22.0 mph /  35.4 km/h 91 % 0.00 in /  0 mm 0 W/m2
20:48 55.2 °F /  12.9 °C 52.6 °F /  11.4 °C 30.02 in /  1016.5 hPa SW 12.0 mph /  19.3 km/h 22.0 mph /  35.4 km/h 91 % 0.00 in /  0 mm 0 W/m2
20:53 55.2 °F /  12.9 °C 52.6 °F /  11.4 °C 30.02 in /  1016.5 hPa SW 10.0 mph /  16.1 km/h 19.0 mph /  30.6 km/h 91 % 0.00 in /  0 mm 0 W/m2
20:58 55.2 °F /  12.9 °C 52.3 °F /  11.3 °C 30.02 in /  1016.5 hPa SW 10.0 mph /  16.1 km/h 18.0 mph /  29 km/h 90 % 0.00 in /  0 mm 0 W/m2
21:03 55.2 °F /  12.9 °C 52.6 °F /  11.4 °C 30.02 in /  1016.5 hPa SW 11.0 mph /  17.7 km/h 18.0 mph /  29 km/h 91 % 0.00 in /  0 mm 0 W/m2
21:08 55.2 °F /  12.9 °C 52.6 °F /  11.4 °C 30.02 in /  1016.5 hPa SSW 12.0 mph /  19.3 km/h 20.0 mph /  32.2 km/h 91 % 0.00 in /  0 mm 0 W/m2
21:13 55.2 °F /  12.9 °C 52.3 °F /  11.3 °C 30.02 in /  1016.5 hPa SSW 13.0 mph /  20.9 km/h 21.0 mph /  33.8 km/h 90 % 0.00 in /  0 mm 0 W/m2
21:18 55.4 °F /  13 °C 52.5 °F /  11.4 °C 30.02 in /  1016.5 hPa SW 13.0 mph /  20.9 km/h 21.0 mph /  33.8 km/h 90 % 0.00 in /  0 mm 0 W/m2
21:23 55.4 °F /  13 °C 52.5 °F /  11.4 °C 30.02 in /  1016.5 hPa SW 13.0 mph /  20.9 km/h 23.0 mph /  37 km/h 90 % 0.00 in /  0 mm 0 W/m2
21:28 55.4 °F /  13 °C 52.5 °F /  11.4 °C 30.02 in /  1016.5 hPa SW 14.0 mph /  22.5 km/h 23.0 mph /  37 km/h 90 % 0.00 in /  0 mm 0 W/m2
21:33 55.6 °F /  13.1 °C 52.7 °F /  11.5 °C 30.02 in /  1016.5 hPa SSW 14.0 mph /  22.5 km/h 24.0 mph /  38.6 km/h 90 % 0.00 in /  0 mm 0 W/m2
21:38 55.6 °F /  13.1 °C 52.7 °F /  11.5 °C 30.02 in /  1016.5 hPa SSW 14.0 mph /  22.5 km/h 24.0 mph /  38.6 km/h 90 % 0.00 in /  0 mm 0 W/m2
21:43 55.6 °F /  13.1 °C 52.7 °F /  11.5 °C 30.02 in /  1016.5 hPa SW 13.0 mph /  20.9 km/h 23.0 mph /  37 km/h 90 % 0.00 in /  0 mm 0 W/m2
21:48 55.6 °F /  13.1 °C 52.7 °F /  11.5 °C 30.02 in /  1016.5 hPa SW 13.0 mph /  20.9 km/h 21.0 mph /  33.8 km/h 90 % 0.00 in /  0 mm 0 W/m2
21:53 55.6 °F /  13.1 °C 52.7 °F /  11.5 °C 30.02 in /  1016.5 hPa SW 13.0 mph /  20.9 km/h 21.0 mph /  33.8 km/h 90 % 0.00 in /  0 mm 0 W/m2
21:58 55.6 °F /  13.1 °C 52.4 °F /  11.3 °C 30.02 in /  1016.5 hPa SSW 13.0 mph /  20.9 km/h 27.0 mph /  43.5 km/h 89 % 0.00 in /  0 mm 0 W/m2
22:03 55.6 °F /  13.1 °C 52.4 °F /  11.3 °C 30.02 in /  1016.5 hPa SSW 13.0 mph /  20.9 km/h 27.0 mph /  43.5 km/h 89 % 0.00 in /  0 mm 0 W/m2
22:08 55.6 °F /  13.1 °C 52.4 °F /  11.3 °C 30.02 in /  1016.5 hPa SSW 12.0 mph /  19.3 km/h 20.0 mph /  32.2 km/h 89 % 0.00 in /  0 mm 0 W/m2
22:13 55.8 °F /  13.2 °C 52.6 °F /  11.4 °C 30.02 in /  1016.5 hPa SSW 11.0 mph /  17.7 km/h 20.0 mph /  32.2 km/h 89 % 0.00 in /  0 mm 0 W/m2
22:18 55.8 °F /  13.2 °C 52.6 °F /  11.4 °C 30.02 in /  1016.5 hPa SSW 11.0 mph /  17.7 km/h 20.0 mph /  32.2 km/h 89 % 0.00 in /  0 mm 0 W/m2
22:23 55.8 °F /  13.2 °C 52.6 °F /  11.4 °C 30.02 in /  1016.5 hPa SSW 10.0 mph /  16.1 km/h 19.0 mph /  30.6 km/h 89 % 0.00 in /  0 mm 0 W/m2
22:28 55.8 °F /  13.2 °C 52.6 °F /  11.4 °C 30.02 in /  1016.5 hPa SSW 11.0 mph /  17.7 km/h 26.0 mph /  41.8 km/h 89 % 0.00 in /  0 mm 0 W/m2
22:34 55.8 °F /  13.2 °C 52.6 °F /  11.4 °C 30.02 in /  1016.5 hPa SSW 11.0 mph /  17.7 km/h 26.0 mph /  41.8 km/h 89 % 0.00 in /  0 mm 0 W/m2
22:39 55.8 °F /  13.2 °C 52.6 °F /  11.4 °C 30.02 in /  1016.5 hPa SSW 11.0 mph /  17.7 km/h 22.0 mph /  35.4 km/h 89 % 0.00 in /  0 mm 0 W/m2
22:44 55.8 °F /  13.2 °C 52.6 °F /  11.4 °C 30.02 in /  1016.5 hPa SSW 10.0 mph /  16.1 km/h 22.0 mph /  35.4 km/h 89 % 0.00 in /  0 mm 0 W/m2
22:49 55.8 °F /  13.2 °C 52.6 °F /  11.4 °C 30.02 in /  1016.5 hPa SSW 9.0 mph /  14.5 km/h 18.0 mph /  29 km/h 89 % 0.00 in /  0 mm 0 W/m2
22:54 55.8 °F /  13.2 °C 52.6 °F /  11.4 °C 30.02 in /  1016.5 hPa SSW 10.0 mph /  16.1 km/h 18.0 mph /  29 km/h 89 % 0.00 in /  0 mm 0 W/m2
22:59 55.8 °F /  13.2 °C 52.6 °F /  11.4 °C 30.02 in /  1016.5 hPa SSW 9.0 mph /  14.5 km/h 18.0 mph /  29 km/h 89 % 0.00 in /  0 mm 0 W/m2
23:04 55.8 °F /  13.2 °C 52.6 °F /  11.4 °C 30.02 in /  1016.5 hPa SSW 9.0 mph /  14.5 km/h 18.0 mph /  29 km/h 89 % 0.00 in /  0 mm 0 W/m2
23:09 55.6 °F /  13.1 °C 52.4 °F /  11.3 °C 30.02 in /  1016.5 hPa SSW 11.0 mph /  17.7 km/h 22.0 mph /  35.4 km/h 89 % 0.00 in /  0 mm 0 W/m2
23:14 55.8 °F /  13.2 °C 52.6 °F /  11.4 °C 30.02 in /  1016.5 hPa SSW 12.0 mph /  19.3 km/h 23.0 mph /  37 km/h 89 % 0.00 in /  0 mm 0 W/m2
23:19 55.8 °F /  13.2 °C 52.6 °F /  11.4 °C 30.02 in /  1016.5 hPa SSW 13.0 mph /  20.9 km/h 23.0 mph /  37 km/h 89 % 0.00 in /  0 mm 0 W/m2
23:24 55.8 °F /  13.2 °C 52.6 °F /  11.4 °C 30.02 in /  1016.5 hPa SSW 14.0 mph /  22.5 km/h 22.0 mph /  35.4 km/h 89 % 0.00 in /  0 mm 0 W/m2
23:29 55.8 °F /  13.2 °C 52.3 °F /  11.3 °C 30.01 in /  1016.1 hPa SSW 13.0 mph /  20.9 km/h 22.0 mph /  35.4 km/h 88 % 0.00 in /  0 mm 0 W/m2
23:34 55.8 °F /  13.2 °C 52.3 °F /  11.3 °C 30.01 in /  1016.1 hPa SSW 12.0 mph /  19.3 km/h 21.0 mph /  33.8 km/h 88 % 0.00 in /  0 mm 0 W/m2
23:39 55.8 °F /  13.2 °C 52.3 °F /  11.3 °C 30.01 in /  1016.1 hPa SSW 12.0 mph /  19.3 km/h 21.0 mph /  33.8 km/h 88 % 0.00 in /  0 mm 0 W/m2
23:44 55.8 °F /  13.2 °C 52.3 °F /  11.3 °C 30.01 in /  1016.1 hPa SSW 13.0 mph /  20.9 km/h 22.0 mph /  35.4 km/h 88 % 0.00 in /  0 mm 0 W/m2
23:49 55.8 °F /  13.2 °C 52.3 °F /  11.3 °C 30.01 in /  1016.1 hPa SW 13.0 mph /  20.9 km/h 22.0 mph /  35.4 km/h 88 % 0.00 in /  0 mm 0 W/m2
23:54 55.8 °F /  13.2 °C 52.3 °F /  11.3 °C 30.01 in /  1016.1 hPa SW 11.0 mph /  17.7 km/h 21.0 mph /  33.8 km/h 88 % 0.00 in /  0 mm 0 W/m2
23:59 55.8 °F /  13.2 °C 52.3 °F /  11.3 °C 30.01 in /  1016.1 hPa SW 11.0 mph /  17.7 km/h 18.0 mph /  29 km/h 88 % 0.00 in /  0 mm 0 W/m2
Delerius-Weather
Compliments of Weather Underground - 2.25 mb

Data updates at regular intervals.